Time;durP1;ratioP1;P1;durP2;ratioP2;P2;SDS_P1;SDS_P2;PMS_P1;PMS_P2;Temp;Humidity;BMP_temperature;BMP_pressure;BME280_temperature;BME280_humidity;BME280_pressure;Samples;Min_cycle;Max_cycle;Signal;HPM_P1;HPM_P2
2022/06/09 00:01:53;;;;;;;18.73;6.35;;;15.20;99.90;;;;;;5076202;28;20050;-70
2022/06/09 00:04:27;;;;;;;12.27;4.18;;;15.20;99.90;;;;;;5068704;28;20056;-70
2022/06/09 00:07:00;;;;;;;10.98;4.60;;;15.20;99.90;;;;;;5076138;28;20416;-70
2022/06/09 00:09:38;;;;;;;19.08;5.72;;;15.20;99.90;;;;;;5075817;28;20032;-70
2022/06/09 00:12:05;;;;;;;24.45;5.18;;;15.20;99.90;;;;;;5058369;28;20053;-70
2022/06/09 00:14:31;;;;;;;16.60;5.50;;;15.10;99.90;;;;;;5075760;28;20385;-70
2022/06/09 00:16:57;;;;;;;12.63;4.03;;;15.10;99.90;;;;;;5067842;28;20060;-70
2022/06/09 00:19:23;;;;;;;17.05;5.03;;;15.10;99.90;;;;;;5075705;28;20037;-70
2022/06/09 00:21:48;;;;;;;6.93;3.33;;;15.10;99.90;;;;;;5075505;28;20040;-70
2022/06/09 00:24:14;;;;;;;11.98;5.13;;;15.00;99.90;;;;;;5058077;28;20373;-70
2022/06/09 00:26:40;;;;;;;14.25;4.35;;;15.00;99.90;;;;;;5075570;28;20072;-70
2022/06/09 00:29:06;;;;;;;10.43;4.00;;;15.00;99.90;;;;;;5074622;28;20106;-70
2022/06/09 00:31:32;;;;;;;13.18;4.68;;;15.00;99.90;;;;;;5067257;28;20416;-70
2022/06/09 00:33:58;;;;;;;11.20;4.22;;;15.00;99.90;;;;;;5075573;28;20044;-70
2022/06/09 00:36:24;;;;;;;10.98;3.88;;;14.90;99.90;;;;;;5041323;28;20048;-70
2022/06/09 00:38:49;;;;;;;14.07;4.90;;;15.00;99.90;;;;;;5073499;28;20098;-70
2022/06/09 00:41:15;;;;;;;13.60;4.55;;;15.10;99.90;;;;;;5075180;28;20072;-70
2022/06/09 00:43:43;;;;;;;14.95;4.50;;;15.10;99.90;;;;;;5057514;28;20049;-71
2022/06/09 00:46:19;;;;;;;11.25;4.13;;;15.00;99.90;;;;;;5057729;28;20135;-70
2022/06/09 00:48:56;;;;;;;15.40;4.55;;;15.10;99.90;;;;;;5082708;28;20036;-70
2022/06/09 00:51:32;;;;;;;13.75;4.60;;;15.10;99.90;;;;;;5094923;28;20127;-70
2022/06/09 00:54:05;;;;;;;15.95;4.10;;;15.10;99.90;;;;;;5095450;28;20157;-70
2022/06/09 00:56:32;;;;;;;22.23;5.07;;;15.10;99.90;;;;;;5072369;28;20568;-70
2022/06/09 00:58:58;;;;;;;15.68;5.53;;;15.10;99.90;;;;;;5074566;28;20117;-70
2022/06/09 01:01:24;;;;;;;13.27;4.30;;;15.10;99.90;;;;;;5057797;28;20520;-70
2022/06/09 01:03:59;;;;;;;15.80;5.47;;;15.00;99.90;;;;;;5064968;28;20520;-70
2022/06/09 01:06:29;;;;;;;16.83;5.55;;;15.10;99.90;;;;;;5074925;28;20079;-70
2022/06/09 01:09:05;;;;;;;16.77;4.72;;;15.10;99.90;;;;;;5075166;28;20368;-70
2022/06/09 01:11:31;;;;;;;11.55;5.28;;;15.00;99.90;;;;;;5074897;28;20113;-70
2022/06/09 01:13:58;;;;;;;16.50;4.70;;;15.10;99.90;;;;;;5057458;28;20080;-70
2022/06/09 01:17:01;;;;;;;12.80;5.40;;;15.00;99.90;;;;;;5074523;28;20072;-70
2022/06/09 01:20:02;;;;;;;14.98;4.68;;;15.00;99.90;;;;;;5075051;28;20044;-70
2022/06/09 01:23:03;;;;;;;14.50;4.40;;;15.10;99.90;;;;;;5071787;28;20059;-72
2022/06/09 01:25:59;;;;;;;17.67;5.28;;;15.00;99.90;;;;;;5070084;28;20044;-70
2022/06/09 01:28:51;;;;;;;9.07;4.15;;;15.00;99.90;;;;;;5070230;28;20076;-70
2022/06/09 01:31:33;;;;;;;15.00;4.63;;;15.00;99.90;;;;;;5057557;28;20048;-70
2022/06/09 01:34:25;;;;;;;14.80;6.30;;;15.00;99.90;;;;;;5056776;28;20072;-70
2022/06/09 01:37:03;;;;;;;15.13;6.10;;;15.00;99.90;;;;;;5074501;28;20056;-70
2022/06/09 01:39:42;;;;;;;13.30;5.63;;;15.00;99.90;;;;;;5074523;28;20044;-70
2022/06/09 01:42:28;;;;;;;14.25;5.68;;;15.00;99.90;;;;;;5073263;28;20437;-70
2022/06/09 01:45:16;;;;;;;24.95;7.18;;;15.00;99.90;;;;;;5069114;28;20086;-72
2022/06/09 01:48:03;;;;;;;13.40;5.63;;;15.00;99.90;;;;;;5056012;28;20063;-70
2022/06/09 01:50:36;;;;;;;19.83;6.60;;;15.00;99.90;;;;;;5072847;28;20143;-70
2022/06/09 01:53:08;;;;;;;15.50;5.47;;;14.90;99.90;;;;;;5060986;28;20066;-70
2022/06/09 01:55:36;;;;;;;17.70;6.60;;;14.90;99.90;;;;;;5078650;28;20070;-69
2022/06/09 01:58:05;;;;;;;24.60;6.95;;;14.90;99.90;;;;;;5074907;28;20053;-70
2022/06/09 02:00:31;;;;;;;18.13;5.93;;;14.90;99.90;;;;;;5078810;28;20044;-69
2022/06/09 02:03:11;;;;;;;17.23;6.72;;;14.90;99.90;;;;;;5061415;28;20365;-69
2022/06/09 02:05:42;;;;;;;17.58;6.22;;;14.80;99.90;;;;;;5070580;28;20477;-70
2022/06/09 02:08:14;;;;;;;18.00;5.07;;;14.80;99.90;;;;;;5078388;28;20126;-70
2022/06/09 02:10:43;;;;;;;24.35;5.32;;;14.80;99.90;;;;;;5061856;28;20056;-69
2022/06/09 02:13:17;;;;;;;13.32;5.85;;;14.80;99.90;;;;;;5098868;28;20128;-70
2022/06/09 02:15:46;;;;;;;16.52;6.38;;;14.80;99.90;;;;;;5064525;28;20052;-69
2022/06/09 02:18:18;;;;;;;15.50;5.72;;;14.70;99.90;;;;;;5060452;28;20052;-70
2022/06/09 02:20:54;;;;;;;18.05;5.55;;;14.70;99.90;;;;;;5074958;28;20045;-70
2022/06/09 02:23:20;;;;;;;11.75;5.47;;;14.70;99.90;;;;;;5069406;28;20387;-70
2022/06/09 02:25:45;;;;;;;11.80;4.70;;;14.70;99.90;;;;;;5058315;28;20048;-70
2022/06/09 02:28:11;;;;;;;18.33;6.25;;;14.70;99.90;;;;;;5077936;28;20048;-70
2022/06/09 02:30:38;;;;;;;11.98;5.03;;;14.70;99.90;;;;;;5076072;28;20052;-70
2022/06/09 02:33:04;;;;;;;18.25;5.85;;;14.70;99.90;;;;;;5060350;28;20150;-70
2022/06/09 02:35:30;;;;;;;15.10;6.18;;;14.70;99.90;;;;;;5060080;28;20063;-70
2022/06/09 02:37:56;;;;;;;18.90;5.50;;;14.70;99.90;;;;;;5045436;28;20048;-70
2022/06/09 02:40:22;;;;;;;10.65;5.38;;;14.70;99.90;;;;;;5097897;28;20402;-70
2022/06/09 02:42:48;;;;;;;11.20;5.05;;;14.70;99.90;;;;;;5068657;28;20526;-69
2022/06/09 02:45:15;;;;;;;15.15;5.78;;;14.70;99.90;;;;;;5059994;28;20044;-70
2022/06/09 02:47:41;;;;;;;16.50;5.50;;;14.70;99.90;;;;;;5069192;28;20084;-70
2022/06/09 02:50:07;;;;;;;21.05;6.15;;;14.70;99.90;;;;;;5075188;28;20068;-71
2022/06/09 02:52:33;;;;;;;13.48;5.28;;;14.60;99.90;;;;;;5068408;28;20049;-69
2022/06/09 02:54:59;;;;;;;18.70;6.97;;;14.70;99.90;;;;;;5073936;28;20482;-69
2022/06/09 02:57:24;;;;;;;23.90;6.53;;;14.60;99.90;;;;;;5097104;28;20044;-70
2022/06/09 02:59:53;;;;;;;17.42;6.65;;;14.60;99.90;;;;;;5092081;28;20128;-70
2022/06/09 03:02:19;;;;;;;18.33;7.05;;;14.60;99.90;;;;;;5069231;28;20071;-70
2022/06/09 03:04:46;;;;;;;14.60;5.78;;;14.60;99.90;;;;;;5076900;28;20115;-70
2022/06/09 03:07:12;;;;;;;18.83;6.57;;;14.60;99.90;;;;;;5059972;28;20052;-70
2022/06/09 03:09:39;;;;;;;23.88;5.95;;;14.50;99.90;;;;;;5076802;28;20420;-70
2022/06/09 03:12:05;;;;;;;18.95;6.20;;;14.40;99.90;;;;;;5056260;28;20059;-69
2022/06/09 03:14:31;;;;;;;25.48;7.25;;;14.50;99.90;;;;;;5059429;28;20417;-70
2022/06/09 03:16:57;;;;;;;16.35;6.57;;;14.50;99.90;;;;;;5059458;28;20048;-70
2022/06/09 03:19:22;;;;;;;17.20;6.35;;;14.50;99.90;;;;;;5075436;28;20040;-70
2022/06/09 03:21:48;;;;;;;16.80;6.22;;;14.60;99.90;;;;;;5076878;28;20137;-70
2022/06/09 03:24:14;;;;;;;17.73;6.72;;;14.50;99.90;;;;;;5072862;28;20123;-70
2022/06/09 03:26:39;;;;;;;20.02;7.20;;;14.50;99.90;;;;;;5060293;28;20071;-70
2022/06/09 03:29:05;;;;;;;22.50;7.55;;;14.50;99.90;;;;;;5076770;28;20040;-70
2022/06/09 03:31:31;;;;;;;19.13;6.80;;;14.60;99.90;;;;;;5059077;28;20084;-70
2022/06/09 03:33:57;;;;;;;19.55;6.20;;;14.60;99.90;;;;;;5058880;28;20083;-70
2022/06/09 03:36:22;;;;;;;15.50;6.35;;;14.60;99.90;;;;;;5068934;28;20048;-70
2022/06/09 03:38:48;;;;;;;15.05;7.03;;;14.60;99.90;;;;;;5067706;28;20044;-70
2022/06/09 03:41:14;;;;;;;22.85;6.72;;;14.60;99.90;;;;;;5065329;28;20484;-70
2022/06/09 03:43:39;;;;;;;12.57;5.78;;;14.60;99.90;;;;;;5058961;28;20048;-69
2022/06/09 03:46:05;;;;;;;20.33;6.20;;;14.70;99.90;;;;;;5068763;28;20057;-70
2022/06/09 03:48:31;;;;;;;20.20;8.15;;;14.70;99.90;;;;;;5058832;28;20115;-70
2022/06/09 03:50:56;;;;;;;17.20;6.45;;;14.70;99.90;;;;;;5076453;28;20044;-70
2022/06/09 03:53:22;;;;;;;13.30;6.13;;;14.70;99.90;;;;;;5070966;28;20457;-70
2022/06/09 03:55:48;;;;;;;17.30;7.00;;;14.70;99.90;;;;;;5059136;28;20086;-70
2022/06/09 03:58:13;;;;;;;13.73;6.10;;;14.70;99.90;;;;;;5065538;28;20044;-71
2022/06/09 04:00:39;;;;;;;13.60;6.55;;;14.70;99.90;;;;;;5065842;28;20123;-70
2022/06/09 04:03:05;;;;;;;15.65;7.03;;;14.70;99.90;;;;;;5058430;28;20048;-71
2022/06/09 04:05:32;;;;;;;13.68;6.47;;;14.70;99.90;;;;;;5088190;28;20044;-70
2022/06/09 04:08:02;;;;;;;14.68;6.13;;;14.70;99.90;;;;;;5063815;28;20060;-70
2022/06/09 04:10:30;;;;;;;20.83;7.82;;;14.70;99.90;;;;;;5057424;28;20055;-70
2022/06/09 04:12:56;;;;;;;19.55;6.82;;;14.60;99.90;;;;;;5075882;28;20059;-70
2022/06/09 04:15:22;;;;;;;18.73;6.47;;;14.70;99.90;;;;;;5058676;28;20369;-70
2022/06/09 04:17:48;;;;;;;14.95;5.47;;;14.80;99.90;;;;;;5076224;28;20050;-70
2022/06/09 04:20:16;;;;;;;12.93;5.82;;;14.90;99.90;;;;;;5075847;28;20079;-70
2022/06/09 04:22:42;;;;;;;10.95;5.25;;;14.80;99.90;;;;;;5075851;28;20051;-69
2022/06/09 04:25:08;;;;;;;12.43;5.65;;;14.80;99.90;;;;;;5058600;28;20048;-70
2022/06/09 04:27:34;;;;;;;16.20;6.10;;;14.80;99.90;;;;;;5075812;28;20044;-70
2022/06/09 04:30:00;;;;;;;12.02;5.35;;;14.80;99.90;;;;;;5075345;28;20113;-70
2022/06/09 04:32:26;;;;;;;14.93;6.00;;;14.80;99.90;;;;;;5057827;28;20131;-70
2022/06/09 04:34:52;;;;;;;16.00;4.85;;;14.80;99.90;;;;;;5058291;28;20484;-69
2022/06/09 04:37:18;;;;;;;14.68;4.43;;;14.80;99.90;;;;;;5058094;28;20418;-70
2022/06/09 04:39:43;;;;;;;11.15;5.65;;;14.80;99.90;;;;;;5071319;28;20123;-69
2022/06/09 04:42:09;;;;;;;10.77;5.22;;;14.90;99.90;;;;;;5078384;28;20086;-70
2022/06/09 04:44:35;;;;;;;14.40;5.63;;;14.90;99.90;;;;;;5095395;28;20127;-70
2022/06/09 04:47:00;;;;;;;11.52;5.60;;;14.90;99.90;;;;;;5077864;28;20059;-70
2022/06/09 04:49:26;;;;;;;13.10;5.63;;;15.00;99.90;;;;;;5078007;28;20043;-70
2022/06/09 04:51:52;;;;;;;10.90;4.50;;;15.00;99.90;;;;;;5095507;28;20425;-69
2022/06/09 04:54:18;;;;;;;10.23;5.10;;;15.00;99.90;;;;;;5073851;28;20475;-70
2022/06/09 04:56:44;;;;;;;13.05;4.88;;;14.90;99.90;;;;;;5057467;28;20044;-71
2022/06/09 04:59:10;;;;;;;13.43;6.53;;;15.00;99.90;;;;;;5057821;28;20440;-71
2022/06/09 05:01:36;;;;;;;12.48;5.50;;;15.00;99.90;;;;;;5057780;28;20091;-70
2022/06/09 05:04:03;;;;;;;11.55;5.95;;;15.00;99.90;;;;;;5057763;28;20053;-71
2022/06/09 05:06:29;;;;;;;13.02;6.35;;;15.00;99.90;;;;;;5057630;28;20049;-70
2022/06/09 05:08:56;;;;;;;11.18;5.70;;;15.10;99.90;;;;;;5074665;28;20052;-70
2022/06/09 05:11:25;;;;;;;21.50;6.25;;;15.10;99.90;;;;;;5075718;28;20044;-70
2022/06/09 05:13:51;;;;;;;14.80;6.18;;;15.10;99.90;;;;;;5077505;28;20444;-70
2022/06/09 05:16:17;;;;;;;15.85;6.05;;;15.00;99.90;;;;;;5077209;28;20046;-70
2022/06/09 05:18:44;;;;;;;15.73;7.03;;;15.00;99.90;;;;;;5078228;28;20456;-70
2022/06/09 05:21:10;;;;;;;16.63;7.30;;;15.00;99.90;;;;;;5076769;28;20074;-70
2022/06/09 05:23:36;;;;;;;12.88;6.28;;;15.00;99.90;;;;;;5076524;28;20126;-70
2022/06/09 05:26:04;;;;;;;13.27;7.25;;;15.00;99.90;;;;;;5074943;28;20040;-70
2022/06/09 05:28:31;;;;;;;16.25;7.85;;;15.00;99.90;;;;;;5057235;28;20052;-70
2022/06/09 05:30:57;;;;;;;12.48;7.35;;;15.00;99.90;;;;;;5057172;28;20108;-70
2022/06/09 05:33:23;;;;;;;13.82;7.40;;;15.10;99.90;;;;;;5074769;28;20460;-70
2022/06/09 05:35:50;;;;;;;14.10;7.50;;;15.00;99.90;;;;;;5057366;28;20055;-70
2022/06/09 05:46:32;;;;;;;13.15;7.30;;;15.10;99.90;;;;;;5074754;28;20052;-70
2022/06/09 05:48:58;;;;;;;13.95;7.10;;;15.20;99.90;;;;;;5057502;28;20052;-70
2022/06/09 05:51:24;;;;;;;16.63;8.13;;;15.30;99.90;;;;;;5056877;28;20049;-70
2022/06/09 05:53:50;;;;;;;12.98;6.93;;;15.40;99.90;;;;;;5042746;28;20040;-70
2022/06/09 05:56:16;;;;;;;11.77;7.47;;;15.50;99.90;;;;;;5056911;28;20109;-70
2022/06/09 05:58:43;;;;;;;16.17;7.18;;;15.60;99.90;;;;;;5057888;28;20052;-70
2022/06/09 06:01:11;;;;;;;12.80;6.97;;;15.60;99.90;;;;;;5057123;28;20052;-70
2022/06/09 06:03:38;;;;;;;13.82;7.30;;;15.70;99.90;;;;;;5056932;28;20374;-70
2022/06/09 06:08:49;;;;;;;17.02;9.40;;;15.80;99.90;;;;;;5056871;28;20048;-70
2022/06/09 06:11:15;;;;;;;11.95;7.53;;;15.80;99.90;;;;;;5056875;28;20445;-69
2022/06/09 06:13:42;;;;;;;14.45;6.88;;;15.70;99.90;;;;;;5056964;28;20044;-70
2022/06/09 06:16:08;;;;;;;13.13;7.90;;;15.60;99.90;;;;;;5056571;28;20098;-70
2022/06/09 06:18:34;;;;;;;12.90;7.00;;;15.60;99.90;;;;;;5056614;28;20044;-70
2022/06/09 06:20:59;;;;;;;11.93;7.40;;;15.50;99.90;;;;;;5056728;28;20048;-70
2022/06/09 06:23:26;;;;;;;12.77;8.30;;;15.70;99.90;;;;;;5060245;28;20055;-70
2022/06/09 06:25:52;;;;;;;14.00;7.75;;;15.70;99.90;;;;;;5061557;28;20048;-70
2022/06/09 06:28:18;;;;;;;15.52;8.73;;;15.80;99.90;;;;;;5039056;28;20056;-70
2022/06/09 06:30:44;;;;;;;12.98;7.63;;;15.90;99.90;;;;;;5073943;28;20139;-70
2022/06/09 06:33:09;;;;;;;15.25;7.70;;;15.90;99.90;;;;;;5058216;28;20064;-70
2022/06/09 06:35:35;;;;;;;15.23;8.30;;;15.90;99.90;;;;;;5078082;28;20075;-70
2022/06/09 06:38:00;;;;;;;15.10;7.95;;;16.10;99.90;;;;;;5078307;28;20345;-70
2022/06/09 06:40:26;;;;;;;15.27;8.40;;;16.30;99.90;;;;;;5072608;28;20059;-70
2022/06/09 06:42:52;;;;;;;14.07;8.93;;;16.60;99.90;;;;;;5080839;28;20051;-71
2022/06/09 06:45:18;;;;;;;14.40;8.70;;;16.90;99.90;;;;;;5098295;28;20077;-70
2022/06/09 06:47:44;;;;;;;14.13;8.65;;;17.20;99.90;;;;;;5076533;28;20369;-70
2022/06/09 06:50:12;;;;;;;12.90;7.80;;;17.30;99.90;;;;;;5077669;28;20044;-70
2022/06/09 06:52:38;;;;;;;15.50;8.70;;;17.50;99.90;;;;;;5054705;28;20061;-70
2022/06/09 06:55:05;;;;;;;14.77;8.80;;;17.80;99.90;;;;;;5057648;28;20049;-71
2022/06/09 06:57:33;;;;;;;15.32;8.48;;;18.90;99.90;;;;;;5039993;28;20059;-70
2022/06/09 06:59:58;;;;;;;12.60;8.65;;;19.60;99.90;;;;;;5039667;28;20059;-70
2022/06/09 07:02:24;;;;;;;12.35;8.45;;;20.10;99.90;;;;;;5042888;28;20119;-70
2022/06/09 07:04:50;;;;;;;15.43;7.88;;;20.10;99.90;;;;;;5066162;28;20376;-70
2022/06/09 07:07:15;;;;;;;12.43;7.55;;;20.20;99.90;;;;;;5040433;28;20052;-70
2022/06/09 07:09:41;;;;;;;11.30;7.75;;;20.30;99.90;;;;;;5040664;28;20182;-71
2022/06/09 07:12:07;;;;;;;9.20;6.68;;;19.90;99.90;;;;;;5040436;28;20052;-71
2022/06/09 07:14:34;;;;;;;12.25;7.45;;;19.70;99.90;;;;;;5057443;28;20056;-70
2022/06/09 07:17:00;;;;;;;9.85;6.80;;;19.60;99.90;;;;;;5039533;28;20120;-70
2022/06/09 07:19:26;;;;;;;10.48;6.22;;;20.00;99.90;;;;;;5057314;28;20116;-71
2022/06/09 07:21:51;;;;;;;7.85;5.32;;;20.20;99.90;;;;;;5057221;28;20148;-70
2022/06/09 07:24:18;;;;;;;9.07;6.10;;;20.20;99.90;;;;;;5057472;28;20044;-70
2022/06/09 07:26:44;;;;;;;9.65;5.60;;;20.30;99.90;;;;;;5059183;28;20457;-70
2022/06/09 07:29:11;;;;;;;10.20;6.25;;;20.90;99.90;;;;;;5059318;28;20051;-70
2022/06/09 07:31:37;;;;;;;6.10;4.40;;;21.30;99.90;;;;;;5059118;28;20131;-70
2022/06/09 07:34:03;;;;;;;9.20;5.88;;;21.30;99.90;;;;;;5058975;28;20044;-70
2022/06/09 07:36:30;;;;;;;6.55;4.70;;;21.20;99.90;;;;;;5076794;28;20071;-71
2022/06/09 07:38:56;;;;;;;9.45;4.43;;;22.10;99.90;;;;;;5055368;28;20362;-71
2022/06/09 07:41:22;;;;;;;8.63;4.28;;;22.90;99.90;;;;;;5056552;28;20048;-70
2022/06/09 07:43:49;;;;;;;5.93;4.45;;;23.00;99.90;;;;;;5039056;28;20104;-71
2022/06/09 07:46:15;;;;;;;4.70;3.03;;;23.00;99.90;;;;;;5038546;28;20060;-71
2022/06/09 07:48:42;;;;;;;5.15;3.08;;;24.10;99.90;;;;;;5039084;28;20486;-70
2022/06/09 07:51:07;;;;;;;5.95;3.70;;;24.00;99.90;;;;;;5056493;28;20123;-71
2022/06/09 07:53:34;;;;;;;13.90;2.92;;;23.70;99.90;;;;;;5060391;28;20186;-70
2022/06/09 07:56:00;;;;;;;7.63;2.40;;;24.20;99.90;;;;;;5071771;28;20052;-71
2022/06/09 07:58:26;;;;;;;5.20;2.40;;;24.60;99.90;;;;;;5059015;28;20044;-71
2022/06/09 08:00:52;;;;;;;7.53;2.67;;;24.20;99.90;;;;;;5042574;28;20044;-71
2022/06/09 08:03:23;;;;;;;5.45;2.38;;;23.70;99.90;;;;;;5076445;28;20420;-70
2022/06/09 08:05:49;;;;;;;3.28;1.92;;;23.50;99.90;;;;;;5076446;28;20407;-70
2022/06/09 08:08:15;;;;;;;5.43;1.67;;;23.40;99.90;;;;;;5066346;28;20122;-70
2022/06/09 08:10:41;;;;;;;5.28;2.00;;;23.80;99.90;;;;;;5078851;28;20453;-71
2022/06/09 08:13:08;;;;;;;4.47;2.20;;;24.00;99.90;;;;;;5096446;28;20126;-70
2022/06/09 08:15:34;;;;;;;3.65;1.80;;;24.50;99.90;;;;;;5077954;28;20345;-70
2022/06/09 08:18:01;;;;;;;4.38;1.75;;;25.20;99.90;;;;;;5097015;28;20055;-71
2022/06/09 08:20:30;;;;;;;6.05;1.40;;;25.50;99.90;;;;;;5096772;28;20067;-70
2022/06/09 08:23:08;;;;;;;4.93;1.40;;;25.80;99.90;;;;;;5089029;28;20482;-70
2022/06/09 08:25:35;;;;;;;2.10;1.30;;;26.10;99.90;;;;;;5067934;28;20062;-71
2022/06/09 08:28:03;;;;;;;5.28;1.38;;;25.90;99.90;;;;;;5058445;28;20044;-70
2022/06/09 08:30:30;;;;;;;3.60;1.23;;;25.20;99.90;;;;;;5076579;28;20047;-70
2022/06/09 08:32:57;;;;;;;3.88;1.40;;;24.20;99.90;;;;;;5058546;28;20080;-70
2022/06/09 08:35:24;;;;;;;3.03;1.48;;;23.70;99.90;;;;;;5057926;28;20040;-71
2022/06/09 08:37:51;;;;;;;2.30;1.10;;;23.80;99.90;;;;;;5075475;28;20115;-71
2022/06/09 08:40:43;;;;;;;2.67;1.00;;;24.80;99.90;;;;;;5075615;28;20044;-71
2022/06/09 08:43:34;;;;;;;3.15;0.70;;;25.70;99.90;;;;;;5067249;28;20053;-70
2022/06/09 08:46:24;;;;;;;2.70;1.23;;;25.80;99.90;;;;;;5058195;28;20521;-70
2022/06/09 08:48:52;;;;;;;2.33;1.00;;;25.70;99.90;;;;;;5057830;28;20072;-70
2022/06/09 08:51:43;;;;;;;3.75;0.90;;;25.00;99.90;;;;;;5075328;28;20105;-70
2022/06/09 08:54:18;;;;;;;2.90;0.93;;;25.10;99.90;;;;;;5057048;28;20052;-70
2022/06/09 08:56:45;;;;;;;3.58;0.98;;;24.90;99.90;;;;;;5074890;28;20048;-71
2022/06/09 08:59:18;;;;;;;3.47;1.15;;;24.70;99.90;;;;;;5057694;28;20056;-70
2022/06/09 09:01:48;;;;;;;4.43;0.80;;;24.50;99.90;;;;;;5075232;28;20143;-70
2022/06/09 09:04:23;;;;;;;6.50;1.00;;;24.30;99.90;;;;;;5057876;28;20048;-70
2022/06/09 09:07:13;;;;;;;2.90;0.50;;;23.80;99.90;;;;;;5057522;28;20534;-70
2022/06/09 09:09:40;;;;;;;1.90;0.82;;;23.50;99.90;;;;;;5075731;28;20414;-70
2022/06/09 09:12:32;;;;;;;4.03;1.27;;;24.20;99.90;;;;;;5077252;28;20052;-70
2022/06/09 09:15:17;;;;;;;3.20;0.80;;;24.40;99.90;;;;;;5039919;28;20059;-71
2022/06/09 09:18:01;;;;;;;1.52;0.70;;;24.60;99.90;;;;;;5095213;28;20036;-71
2022/06/09 09:20:30;;;;;;;3.20;0.90;;;24.90;99.90;;;;;;5095111;28;20132;-70
2022/06/09 09:23:13;;;;;;;1.35;0.80;;;25.20;99.90;;;;;;5060721;28;20131;-69
2022/06/09 09:25:49;;;;;;;2.10;0.90;;;25.20;99.90;;;;;;5095291;28;20039;-70
2022/06/09 09:28:30;;;;;;;2.67;1.20;;;25.00;99.90;;;;;;5094865;28;20043;-71
2022/06/09 09:31:25;;;;;;;2.95;0.80;;;24.60;99.90;;;;;;5094852;28;20044;-70
2022/06/09 09:33:51;;;;;;;5.40;0.75;;;24.70;99.90;;;;;;5077573;28;20048;-70
2022/06/09 09:36:31;;;;;;;6.18;1.02;;;24.80;99.90;;;;;;5095145;28;20036;-70
2022/06/09 09:39:11;;;;;;;2.63;0.85;;;24.80;99.90;;;;;;5076166;28;20044;-70
2022/06/09 09:41:39;;;;;;;6.32;0.90;;;24.50;99.90;;;;;;5094520;28;20127;-69
2022/06/09 09:44:26;;;;;;;3.63;0.80;;;24.00;99.90;;;;;;5094712;28;20048;-70
2022/06/09 09:47:00;;;;;;;1.92;0.80;;;23.50;99.90;;;;;;5095115;28;20040;-70
2022/06/09 09:49:35;;;;;;;3.10;0.75;;;23.10;99.90;;;;;;5077230;28;20040;-70
2022/06/09 09:52:22;;;;;;;2.60;0.82;;;22.70;99.90;;;;;;5090939;28;20048;-70
2022/06/09 09:54:47;;;;;;;5.20;1.17;;;22.40;99.90;;;;;;5087168;28;20453;-69
2022/06/09 09:57:19;;;;;;;2.38;1.08;;;22.20;99.90;;;;;;5076995;28;20087;-69
2022/06/09 09:59:52;;;;;;;5.03;1.42;;;22.30;99.90;;;;;;5060413;28;20448;-69
2022/06/09 10:08:40;;;;;;;2.17;1.08;;;23.30;99.90;;;;;;5067984;28;19993;-70
2022/06/09 10:13:59;;;;;;;4.50;1.20;;;23.10;99.90;;;;;;5078575;28;20064;-69
2022/06/09 10:16:28;;;;;;;6.47;0.88;;;23.10;99.90;;;;;;5060574;28;20398;-70
2022/06/09 10:18:59;;;;;;;4.30;1.00;;;23.30;99.90;;;;;;5060776;28;20402;-70
2022/06/09 10:21:25;;;;;;;3.60;1.05;;;23.20;99.90;;;;;;5060653;28;20052;-70
2022/06/09 10:24:04;;;;;;;1.17;0.70;;;23.10;99.90;;;;;;5077925;28;20044;-69
2022/06/09 10:26:33;;;;;;;2.95;0.90;;;23.10;99.90;;;;;;5098837;28;20055;-69
2022/06/09 10:29:36;;;;;;;6.78;1.38;;;23.00;99.90;;;;;;5080720;28;20459;-70
2022/06/09 10:32:18;;;;;;;4.33;1.03;;;22.80;99.90;;;;;;5098989;28;20046;-70
2022/06/09 10:35:11;;;;;;;2.23;0.63;;;23.10;99.90;;;;;;5080465;28;20063;-69
2022/06/09 10:37:44;;;;;;;5.00;1.00;;;23.30;99.90;;;;;;5073931;28;20052;-70
2022/06/09 10:40:25;;;;;;;2.63;0.82;;;23.50;99.90;;;;;;5077876;28;20055;-70
2022/06/09 10:42:52;;;;;;;2.92;0.98;;;23.60;99.90;;;;;;5060902;28;20388;-70
2022/06/09 10:45:40;;;;;;;2.50;0.90;;;23.70;99.90;;;;;;5059887;28;20059;-71
2022/06/09 10:57:03;;;;;;;7.15;1.33;;;24.20;99.90;;;;;;5060460;28;20135;-69
2022/06/09 10:59:53;;;;;;;3.58;0.98;;;24.10;99.90;;;;;;5060031;28;20048;-70
2022/06/09 11:02:23;;;;;;;5.60;1.02;;;24.10;99.90;;;;;;5059956;28;20060;-70
2022/06/09 11:04:51;;;;;;;4.70;0.80;;;24.00;99.90;;;;;;5059921;28;20052;-69
2022/06/09 11:07:30;;;;;;;5.18;1.10;;;24.00;99.90;;;;;;5060454;28;20040;-70
2022/06/09 11:10:12;;;;;;;5.25;1.27;;;24.10;99.90;;;;;;5077387;28;20128;-70
2022/06/09 11:13:16;;;;;;;4.50;1.50;;;24.30;99.90;;;;;;5059772;28;20058;-70
2022/06/09 11:15:53;;;;;;;2.55;0.80;;;24.20;99.70;;;;;;5060301;28;20048;-70
2022/06/09 11:18:52;;;;;;;2.60;0.77;;;24.00;99.90;;;;;;5059668;28;20048;-69
2022/06/09 11:21:57;;;;;;;2.70;0.82;;;24.00;99.90;;;;;;5059432;28;20064;-69
2022/06/09 11:24:25;;;;;;;5.90;1.50;;;23.80;99.90;;;;;;5071660;28;20052;-70
2022/06/09 11:27:54;;;;;;;5.68;1.20;;;23.60;99.90;;;;;;5097559;28;20059;-70
2022/06/09 11:30:29;;;;;;;2.08;0.80;;;22.90;99.90;;;;;;4979409;28;20459;-70
2022/06/09 11:33:22;;;;;;;2.33;0.90;;;22.70;99.90;;;;;;4995529;28;20042;-69
2022/06/09 11:36:21;;;;;;;1.70;0.77;;;22.60;99.90;;;;;;5067288;28;20059;-71
2022/06/09 11:39:14;;;;;;;3.47;0.70;;;22.50;99.90;;;;;;5078070;28;20295;-70
2022/06/09 11:41:58;;;;;;;4.13;1.10;;;22.60;99.90;;;;;;5080120;28;20032;-70
2022/06/09 11:44:28;;;;;;;3.33;1.05;;;22.50;99.90;;;;;;5079221;28;20040;-69
2022/06/09 11:46:58;;;;;;;3.33;0.73;;;22.50;99.90;;;;;;5064940;28;20060;-70
2022/06/09 11:49:36;;;;;;;2.55;0.95;;;22.70;99.90;;;;;;5077054;28;20075;-69
2022/06/09 11:52:06;;;;;;;1.63;0.75;;;22.90;99.90;;;;;;5076401;28;20128;-70
2022/06/09 11:54:51;;;;;;;2.60;0.93;;;22.80;99.90;;;;;;5058748;28;20072;-70
2022/06/09 11:57:16;;;;;;;4.20;1.15;;;22.70;99.90;;;;;;5076103;28;20475;-70
2022/06/09 12:00:05;;;;;;;2.33;0.80;;;22.50;99.90;;;;;;5076382;28;20127;-69
2022/06/09 12:02:40;;;;;;;5.15;0.85;;;22.10;99.90;;;;;;5077572;28;20493;-70
2022/06/09 12:05:23;;;;;;;3.72;1.08;;;22.30;99.90;;;;;;5078546;28;20048;-70
2022/06/09 12:07:48;;;;;;;;;;;22.40;99.90;;;;;;5097213;28;20063;-69
2022/06/09 12:10:29;;;;;;;2.47;0.75;;;22.60;99.90;;;;;;5079281;28;19919;-70
2022/06/09 12:13:16;;;;;;;4.22;1.08;;;22.90;99.90;;;;;;5078699;28;20044;-69
2022/06/09 12:16:05;;;;;;;3.58;0.60;;;22.80;99.90;;;;;;5095863;28;20041;-69
2022/06/09 12:18:57;;;;;;;1.45;0.75;;;22.90;99.90;;;;;;5078479;28;20105;-70
2022/06/09 12:21:35;;;;;;;2.42;1.10;;;23.20;99.90;;;;;;5096170;28;20040;-70
2022/06/09 12:24:04;;;;;;;5.78;1.20;;;23.50;99.90;;;;;;5096154;28;20044;-70
2022/06/09 12:26:44;;;;;;;5.60;1.33;;;23.90;99.90;;;;;;5096079;28;20109;-69
2022/06/09 12:29:41;;;;;;;5.47;1.10;;;23.90;99.90;;;;;;5078551;28;20047;-70
2022/06/09 12:32:08;;;;;;;3.80;0.95;;;24.10;99.90;;;;;;5075446;28;20393;-70
2022/06/09 12:34:37;;;;;;;1.55;0.80;;;24.00;99.90;;;;;;5057976;28;20056;-71
2022/06/09 12:37:04;;;;;;;3.72;1.00;;;24.00;99.90;;;;;;5058287;28;20365;-70
2022/06/09 12:39:38;;;;;;;1.98;0.80;;;23.90;99.90;;;;;;5075918;28;20060;-70
2022/06/09 12:42:06;;;;;;;2.45;0.95;;;23.90;99.90;;;;;;5058082;28;20044;-70
2022/06/09 12:44:38;;;;;;;4.47;1.20;;;24.30;99.90;;;;;;5059840;28;20051;-70
2022/06/09 12:47:24;;;;;;;5.70;1.20;;;24.50;99.90;;;;;;5085405;28;20486;-69
2022/06/09 12:49:57;;;;;;;3.65;0.90;;;24.40;99.90;;;;;;5077718;28;20054;-69
2022/06/09 12:52:38;;;;;;;;;;;24.10;99.90;;;;;;5078039;28;20048;-70
2022/06/09 12:55:26;;;;;;;3.35;1.42;;;23.70;99.90;;;;;;5077793;28;19920;-69
2022/06/09 12:57:58;;;;;;;4.65;0.95;;;22.90;99.90;;;;;;5077637;28;20040;-69
2022/06/09 13:00:33;;;;;;;3.35;1.15;;;22.70;99.90;;;;;;5070720;28;20475;-70
2022/06/09 13:02:59;;;;;;;2.35;0.85;;;22.60;99.90;;;;;;5057779;28;20075;-70
2022/06/09 13:05:31;;;;;;;2.08;0.90;;;22.50;99.90;;;;;;5057690;28;20049;-69
2022/06/09 13:08:00;;;;;;;3.10;0.93;;;22.60;99.90;;;;;;5075171;28;20127;-70
2022/06/09 13:10:29;;;;;;;2.25;0.80;;;22.70;99.90;;;;;;5057323;28;20170;-70
2022/06/09 13:13:07;;;;;;;4.10;1.52;;;23.00;99.90;;;;;;5057569;28;20044;-70
2022/06/09 13:15:40;;;;;;;5.65;1.48;;;23.00;99.90;;;;;;5074908;28;20049;-70
2022/06/09 13:18:17;;;;;;;4.63;1.10;;;23.20;99.90;;;;;;5057089;28;20087;-71
2022/06/09 13:21:06;;;;;;;2.65;0.90;;;23.20;99.90;;;;;;5075134;28;20055;-69
2022/06/09 13:23:34;;;;;;;2.25;1.15;;;23.30;99.90;;;;;;5057301;28;20078;-70
2022/06/09 13:26:00;;;;;;;5.85;0.70;;;23.20;99.40;;;;;;5057498;28;20182;-70
2022/06/09 13:28:37;;;;;;;2.58;1.05;;;23.20;99.90;;;;;;5057356;28;20056;-70
2022/06/09 13:31:26;;;;;;;3.85;1.20;;;23.40;99.90;;;;;;5091003;28;20044;-70
2022/06/09 13:34:30;;;;;;;2.50;1.13;;;23.50;99.90;;;;;;5076901;28;20097;-70